sensor_id;sensor_type;location;lat;lon;timestamp;temperature;humidity
49236;DHT22;35067;48.134;8.378;2022-12-29T00:00:53;9.40;79.10
49236;DHT22;35067;48.134;8.378;2022-12-29T00:02:54;9.60;78.10
49236;DHT22;35067;48.134;8.378;2022-12-29T00:04:54;9.70;77.50
49236;DHT22;35067;48.134;8.378;2022-12-29T00:06:55;9.70;77.10
49236;DHT22;35067;48.134;8.378;2022-12-29T00:08:56;9.80;76.30
49236;DHT22;35067;48.134;8.378;2022-12-29T00:10:56;9.80;74.70
49236;DHT22;35067;48.134;8.378;2022-12-29T00:12:57;9.90;73.40
49236;DHT22;35067;48.134;8.378;2022-12-29T00:15:16;9.90;74.00
49236;DHT22;35067;48.134;8.378;2022-12-29T00:17:35;10.00;70.90
49236;DHT22;35067;48.134;8.378;2022-12-29T00:19:36;10.00;72.30
49236;DHT22;35067;48.134;8.378;2022-12-29T00:21:55;10.00;72.50
49236;DHT22;35067;48.134;8.378;2022-12-29T00:24:19;10.00;71.60
49236;DHT22;35067;48.134;8.378;2022-12-29T00:26:27;10.00;72.80
49236;DHT22;35067;48.134;8.378;2022-12-29T00:28:46;9.90;72.60
49236;DHT22;35067;48.134;8.378;2022-12-29T00:31:10;9.90;72.60
49236;DHT22;35067;48.134;8.378;2022-12-29T00:33:32;9.80;74.00
49236;DHT22;35067;48.134;8.378;2022-12-29T00:35:54;9.80;72.60
49236;DHT22;35067;48.134;8.378;2022-12-29T00:38:03;9.80;71.90
49236;DHT22;35067;48.134;8.378;2022-12-29T00:40:24;9.90;71.50
49236;DHT22;35067;48.134;8.378;2022-12-29T00:42:43;9.80;72.30
49236;DHT22;35067;48.134;8.378;2022-12-29T00:45:02;9.90;71.20
49236;DHT22;35067;48.134;8.378;2022-12-29T00:47:02;9.90;71.30
49236;DHT22;35067;48.134;8.378;2022-12-29T00:49:06;9.90;70.70
49236;DHT22;35067;48.134;8.378;2022-12-29T00:51:26;9.90;70.20
49236;DHT22;35067;48.134;8.378;2022-12-29T00:53:27;10.00;68.70
49236;DHT22;35067;48.134;8.378;2022-12-29T00:55:27;10.10;68.80
49236;DHT22;35067;48.134;8.378;2022-12-29T00:57:28;10.00;68.80
49236;DHT22;35067;48.134;8.378;2022-12-29T00:59:28;10.00;69.10
49236;DHT22;35067;48.134;8.378;2022-12-29T01:01:29;10.00;68.80
49236;DHT22;35067;48.134;8.378;2022-12-29T01:03:30;10.10;67.20
49236;DHT22;35067;48.134;8.378;2022-12-29T01:05:31;10.10;67.80
49236;DHT22;35067;48.134;8.378;2022-12-29T01:07:31;10.10;67.10
49236;DHT22;35067;48.134;8.378;2022-12-29T01:09:32;10.00;67.60
49236;DHT22;35067;48.134;8.378;2022-12-29T01:11:51;10.10;64.80
49236;DHT22;35067;48.134;8.378;2022-12-29T01:13:52;10.20;65.10
49236;DHT22;35067;48.134;8.378;2022-12-29T01:15:54;10.20;65.20
49236;DHT22;35067;48.134;8.378;2022-12-29T01:17:55;10.10;65.10
49236;DHT22;35067;48.134;8.378;2022-12-29T01:19:56;10.10;65.40
49236;DHT22;35067;48.134;8.378;2022-12-29T01:21:56;10.10;65.20
49236;DHT22;35067;48.134;8.378;2022-12-29T01:23:57;10.00;64.90
49236;DHT22;35067;48.134;8.378;2022-12-29T01:26:08;10.00;65.10
49236;DHT22;35067;48.134;8.378;2022-12-29T01:28:10;10.00;64.30
49236;DHT22;35067;48.134;8.378;2022-12-29T01:30:11;10.00;64.50
49236;DHT22;35067;48.134;8.378;2022-12-29T01:32:12;10.00;65.60
49236;DHT22;35067;48.134;8.378;2022-12-29T01:34:12;10.00;64.30
49236;DHT22;35067;48.134;8.378;2022-12-29T01:36:15;10.00;64.20
49236;DHT22;35067;48.134;8.378;2022-12-29T01:38:16;10.10;64.70
49236;DHT22;35067;48.134;8.378;2022-12-29T01:40:17;10.00;65.80
49236;DHT22;35067;48.134;8.378;2022-12-29T01:42:22;9.90;66.10
49236;DHT22;35067;48.134;8.378;2022-12-29T01:44:51;10.00;66.70
49236;DHT22;35067;48.134;8.378;2022-12-29T01:46:53;10.00;66.50
49236;DHT22;35067;48.134;8.378;2022-12-29T01:48:59;9.90;67.50
49236;DHT22;35067;48.134;8.378;2022-12-29T01:51:05;9.80;67.60
49236;DHT22;35067;48.134;8.378;2022-12-29T01:53:10;9.90;68.30
49236;DHT22;35067;48.134;8.378;2022-12-29T01:55:14;9.80;68.50
49236;DHT22;35067;48.134;8.378;2022-12-29T01:57:24;9.70;69.40
49236;DHT22;35067;48.134;8.378;2022-12-29T01:59:34;9.60;69.40
49236;DHT22;35067;48.134;8.378;2022-12-29T02:01:38;9.60;69.80
49236;DHT22;35067;48.134;8.378;2022-12-29T02:03:38;9.60;69.80
49236;DHT22;35067;48.134;8.378;2022-12-29T02:08:09;9.70;69.40
49236;DHT22;35067;48.134;8.378;2022-12-29T02:10:12;9.60;70.20
49236;DHT22;35067;48.134;8.378;2022-12-29T02:12:14;9.50;70.70
49236;DHT22;35067;48.134;8.378;2022-12-29T02:14:15;9.50;70.40
49236;DHT22;35067;48.134;8.378;2022-12-29T02:16:26;9.60;70.60
49236;DHT22;35067;48.134;8.378;2022-12-29T02:18:52;9.50;71.20
49236;DHT22;35067;48.134;8.378;2022-12-29T02:27:04;9.50;72.20
49236;DHT22;35067;48.134;8.378;2022-12-29T02:31:31;9.50;73.20
49236;DHT22;35067;48.134;8.378;2022-12-29T02:33:52;9.40;74.30
49236;DHT22;35067;48.134;8.378;2022-12-29T02:36:33;9.40;74.60
49236;DHT22;35067;48.134;8.378;2022-12-29T02:41:22;9.30;75.70
49236;DHT22;35067;48.134;8.378;2022-12-29T02:43:40;9.30;75.40
49236;DHT22;35067;48.134;8.378;2022-12-29T02:46:21;9.30;76.10
49236;DHT22;35067;48.134;8.378;2022-12-29T02:50:43;9.20;77.50
49236;DHT22;35067;48.134;8.378;2022-12-29T02:52:58;9.20;77.20
49236;DHT22;35067;48.134;8.378;2022-12-29T02:55:00;9.20;77.00
49236;DHT22;35067;48.134;8.378;2022-12-29T02:57:01;9.30;76.30
49236;DHT22;35067;48.134;8.378;2022-12-29T02:59:02;9.40;76.50
49236;DHT22;35067;48.134;8.378;2022-12-29T03:01:17;9.40;76.60
49236;DHT22;35067;48.134;8.378;2022-12-29T03:06:35;9.20;78.40
49236;DHT22;35067;48.134;8.378;2022-12-29T03:11:18;9.20;79.00
49236;DHT22;35067;48.134;8.378;2022-12-29T03:13:48;9.20;79.50
49236;DHT22;35067;48.134;8.378;2022-12-29T03:16:36;9.20;79.30
49236;DHT22;35067;48.134;8.378;2022-12-29T03:18:49;9.20;79.80
49236;DHT22;35067;48.134;8.378;2022-12-29T03:23:45;9.30;78.90
49236;DHT22;35067;48.134;8.378;2022-12-29T03:25:53;9.30;80.10
49236;DHT22;35067;48.134;8.378;2022-12-29T03:28:00;9.30;79.80
49236;DHT22;35067;48.134;8.378;2022-12-29T03:30:04;9.20;79.10
49236;DHT22;35067;48.134;8.378;2022-12-29T03:32:08;9.30;79.50
49236;DHT22;35067;48.134;8.378;2022-12-29T03:34:10;9.30;79.70
49236;DHT22;35067;48.134;8.378;2022-12-29T03:36:17;9.30;79.70
49236;DHT22;35067;48.134;8.378;2022-12-29T03:38:27;9.20;80.10
49236;DHT22;35067;48.134;8.378;2022-12-29T03:40:34;9.20;79.80
49236;DHT22;35067;48.134;8.378;2022-12-29T03:42:36;9.30;80.20
49236;DHT22;35067;48.134;8.378;2022-12-29T03:44:40;9.30;79.90
49236;DHT22;35067;48.134;8.378;2022-12-29T03:46:42;9.30;79.20
49236;DHT22;35067;48.134;8.378;2022-12-29T03:48:43;9.30;78.50
49236;DHT22;35067;48.134;8.378;2022-12-29T03:50:43;9.30;79.10
49236;DHT22;35067;48.134;8.378;2022-12-29T03:52:44;9.30;79.00
49236;DHT22;35067;48.134;8.378;2022-12-29T03:54:45;9.20;80.00
49236;DHT22;35067;48.134;8.378;2022-12-29T03:56:45;9.10;80.90
49236;DHT22;35067;48.134;8.378;2022-12-29T03:58:46;9.00;81.10
49236;DHT22;35067;48.134;8.378;2022-12-29T04:00:47;9.00;81.80
49236;DHT22;35067;48.134;8.378;2022-12-29T04:02:47;9.00;81.90
49236;DHT22;35067;48.134;8.378;2022-12-29T04:04:48;8.90;82.40
49236;DHT22;35067;48.134;8.378;2022-12-29T04:06:49;8.90;82.40
49236;DHT22;35067;48.134;8.378;2022-12-29T04:08:50;9.00;81.50
49236;DHT22;35067;48.134;8.378;2022-12-29T04:10:50;8.90;82.20
49236;DHT22;35067;48.134;8.378;2022-12-29T04:12:51;9.00;82.20
49236;DHT22;35067;48.134;8.378;2022-12-29T04:14:52;9.10;81.70
49236;DHT22;35067;48.134;8.378;2022-12-29T04:16:52;9.00;82.20
49236;DHT22;35067;48.134;8.378;2022-12-29T04:18:53;9.00;82.30
49236;DHT22;35067;48.134;8.378;2022-12-29T04:20:54;9.10;82.80
49236;DHT22;35067;48.134;8.378;2022-12-29T04:23:03;9.20;82.00
49236;DHT22;35067;48.134;8.378;2022-12-29T04:25:05;9.20;82.00
49236;DHT22;35067;48.134;8.378;2022-12-29T04:27:06;9.20;81.80
49236;DHT22;35067;48.134;8.378;2022-12-29T04:29:07;9.20;82.00
49236;DHT22;35067;48.134;8.378;2022-12-29T04:31:07;9.30;82.20
49236;DHT22;35067;48.134;8.378;2022-12-29T04:33:08;9.30;82.30
49236;DHT22;35067;48.134;8.378;2022-12-29T04:35:09;9.20;82.80
49236;DHT22;35067;48.134;8.378;2022-12-29T04:37:10;9.20;83.20
49236;DHT22;35067;48.134;8.378;2022-12-29T04:39:10;9.20;83.30
49236;DHT22;35067;48.134;8.378;2022-12-29T04:41:11;9.20;83.60
49236;DHT22;35067;48.134;8.378;2022-12-29T04:43:13;9.20;83.80
49236;DHT22;35067;48.134;8.378;2022-12-29T04:45:14;9.20;84.40
49236;DHT22;35067;48.134;8.378;2022-12-29T04:47:14;9.20;84.60
49236;DHT22;35067;48.134;8.378;2022-12-29T04:49:15;9.30;84.70
49236;DHT22;35067;48.134;8.378;2022-12-29T04:51:16;9.30;85.00
49236;DHT22;35067;48.134;8.378;2022-12-29T04:53:17;9.20;85.50
49236;DHT22;35067;48.134;8.378;2022-12-29T04:55:18;9.30;86.00
49236;DHT22;35067;48.134;8.378;2022-12-29T04:57:18;9.30;86.30
49236;DHT22;35067;48.134;8.378;2022-12-29T04:59:19;9.30;86.80
49236;DHT22;35067;48.134;8.378;2022-12-29T05:01:20;9.30;86.70
49236;DHT22;35067;48.134;8.378;2022-12-29T05:03:20;9.30;86.80
49236;DHT22;35067;48.134;8.378;2022-12-29T05:05:21;9.20;87.20
49236;DHT22;35067;48.134;8.378;2022-12-29T05:07:22;9.20;87.90
49236;DHT22;35067;48.134;8.378;2022-12-29T05:09:22;9.10;88.50
49236;DHT22;35067;48.134;8.378;2022-12-29T05:11:24;9.10;88.80
49236;DHT22;35067;48.134;8.378;2022-12-29T05:13:24;9.10;88.50
49236;DHT22;35067;48.134;8.378;2022-12-29T05:15:25;9.10;88.70
49236;DHT22;35067;48.134;8.378;2022-12-29T05:17:26;9.10;88.80
49236;DHT22;35067;48.134;8.378;2022-12-29T05:19:26;9.20;89.00
49236;DHT22;35067;48.134;8.378;2022-12-29T05:21:27;9.10;88.40
49236;DHT22;35067;48.134;8.378;2022-12-29T05:23:28;9.20;87.90
49236;DHT22;35067;48.134;8.378;2022-12-29T05:25:28;9.20;86.60
49236;DHT22;35067;48.134;8.378;2022-12-29T05:27:29;9.20;86.80
49236;DHT22;35067;48.134;8.378;2022-12-29T05:29:30;9.30;86.10
49236;DHT22;35067;48.134;8.378;2022-12-29T05:31:30;9.40;85.90
49236;DHT22;35067;48.134;8.378;2022-12-29T05:33:31;9.40;85.30
49236;DHT22;35067;48.134;8.378;2022-12-29T05:35:32;9.40;84.70
49236;DHT22;35067;48.134;8.378;2022-12-29T05:37:33;9.40;85.30
49236;DHT22;35067;48.134;8.378;2022-12-29T05:39:33;9.40;84.80
49236;DHT22;35067;48.134;8.378;2022-12-29T05:41:34;9.40;84.50
49236;DHT22;35067;48.134;8.378;2022-12-29T05:43:35;9.40;84.10
49236;DHT22;35067;48.134;8.378;2022-12-29T05:45:36;9.40;84.00
49236;DHT22;35067;48.134;8.378;2022-12-29T05:47:37;9.50;83.80
49236;DHT22;35067;48.134;8.378;2022-12-29T05:49:37;9.50;83.60
49236;DHT22;35067;48.134;8.378;2022-12-29T05:51:38;9.50;83.70
49236;DHT22;35067;48.134;8.378;2022-12-29T05:53:39;9.50;83.30
49236;DHT22;35067;48.134;8.378;2022-12-29T05:55:39;9.60;83.50
49236;DHT22;35067;48.134;8.378;2022-12-29T05:57:40;9.60;83.20
49236;DHT22;35067;48.134;8.378;2022-12-29T05:59:40;9.60;83.00
49236;DHT22;35067;48.134;8.378;2022-12-29T06:01:41;9.60;82.60
49236;DHT22;35067;48.134;8.378;2022-12-29T06:03:42;9.70;82.50
49236;DHT22;35067;48.134;8.378;2022-12-29T06:05:45;9.70;82.10
49236;DHT22;35067;48.134;8.378;2022-12-29T06:07:46;9.70;81.50
49236;DHT22;35067;48.134;8.378;2022-12-29T06:09:47;9.70;81.60
49236;DHT22;35067;48.134;8.378;2022-12-29T06:11:47;9.90;80.90
49236;DHT22;35067;48.134;8.378;2022-12-29T06:13:48;9.90;80.60
49236;DHT22;35067;48.134;8.378;2022-12-29T06:15:49;9.80;80.30
49236;DHT22;35067;48.134;8.378;2022-12-29T06:17:50;9.80;80.60
49236;DHT22;35067;48.134;8.378;2022-12-29T06:19:51;9.80;80.30
49236;DHT22;35067;48.134;8.378;2022-12-29T06:21:52;9.80;81.50
49236;DHT22;35067;48.134;8.378;2022-12-29T06:23:53;9.80;80.60
49236;DHT22;35067;48.134;8.378;2022-12-29T06:25:54;9.90;79.60
49236;DHT22;35067;48.134;8.378;2022-12-29T06:27:55;9.90;80.60
49236;DHT22;35067;48.134;8.378;2022-12-29T06:29:56;9.90;80.00
49236;DHT22;35067;48.134;8.378;2022-12-29T06:31:57;9.90;79.80
49236;DHT22;35067;48.134;8.378;2022-12-29T06:33:58;9.80;79.50
49236;DHT22;35067;48.134;8.378;2022-12-29T06:35:59;9.80;80.10
49236;DHT22;35067;48.134;8.378;2022-12-29T06:37:59;9.80;80.20
49236;DHT22;35067;48.134;8.378;2022-12-29T06:40:00;9.80;79.60
49236;DHT22;35067;48.134;8.378;2022-12-29T06:42:01;9.80;78.70
49236;DHT22;35067;48.134;8.378;2022-12-29T06:44:02;9.80;78.90
49236;DHT22;35067;48.134;8.378;2022-12-29T06:46:04;9.70;79.50
49236;DHT22;35067;48.134;8.378;2022-12-29T06:48:05;9.70;79.20
49236;DHT22;35067;48.134;8.378;2022-12-29T06:50:07;9.60;79.40
49236;DHT22;35067;48.134;8.378;2022-12-29T06:52:08;9.60;79.40
49236;DHT22;35067;48.134;8.378;2022-12-29T06:54:08;9.60;79.20
49236;DHT22;35067;48.134;8.378;2022-12-29T06:56:09;9.60;79.30
49236;DHT22;35067;48.134;8.378;2022-12-29T06:58:10;9.50;79.50
49236;DHT22;35067;48.134;8.378;2022-12-29T07:00:11;9.40;79.50
49236;DHT22;35067;48.134;8.378;2022-12-29T07:02:12;9.50;79.40
49236;DHT22;35067;48.134;8.378;2022-12-29T07:04:14;9.40;79.30
49236;DHT22;35067;48.134;8.378;2022-12-29T07:06:15;9.50;79.90
49236;DHT22;35067;48.134;8.378;2022-12-29T07:08:16;9.50;78.00
49236;DHT22;35067;48.134;8.378;2022-12-29T07:10:16;9.50;78.00
49236;DHT22;35067;48.134;8.378;2022-12-29T07:12:17;9.60;78.00
49236;DHT22;35067;48.134;8.378;2022-12-29T07:14:18;9.50;77.60
49236;DHT22;35067;48.134;8.378;2022-12-29T07:16:19;9.40;78.00
49236;DHT22;35067;48.134;8.378;2022-12-29T07:18:20;9.50;77.90
49236;DHT22;35067;48.134;8.378;2022-12-29T07:20:21;9.60;77.30
49236;DHT22;35067;48.134;8.378;2022-12-29T07:22:21;9.60;77.00
49236;DHT22;35067;48.134;8.378;2022-12-29T07:24:22;9.70;76.80
49236;DHT22;35067;48.134;8.378;2022-12-29T07:26:23;9.60;76.50
49236;DHT22;35067;48.134;8.378;2022-12-29T07:28:24;9.70;76.70
49236;DHT22;35067;48.134;8.378;2022-12-29T07:30:25;9.80;75.70
49236;DHT22;35067;48.134;8.378;2022-12-29T07:32:25;9.80;76.10
49236;DHT22;35067;48.134;8.378;2022-12-29T07:34:26;9.90;75.70
49236;DHT22;35067;48.134;8.378;2022-12-29T07:36:27;9.90;76.00
49236;DHT22;35067;48.134;8.378;2022-12-29T07:38:28;10.00;74.90
49236;DHT22;35067;48.134;8.378;2022-12-29T07:40:28;10.10;74.50
49236;DHT22;35067;48.134;8.378;2022-12-29T07:42:30;10.10;74.00
49236;DHT22;35067;48.134;8.378;2022-12-29T07:44:31;10.20;74.20
49236;DHT22;35067;48.134;8.378;2022-12-29T07:46:32;10.20;73.60
49236;DHT22;35067;48.134;8.378;2022-12-29T07:48:32;10.20;73.90
49236;DHT22;35067;48.134;8.378;2022-12-29T07:50:36;10.30;74.20
49236;DHT22;35067;48.134;8.378;2022-12-29T07:52:37;10.30;73.50
49236;DHT22;35067;48.134;8.378;2022-12-29T07:54:37;10.30;74.00
49236;DHT22;35067;48.134;8.378;2022-12-29T07:56:38;10.30;74.30
49236;DHT22;35067;48.134;8.378;2022-12-29T07:58:39;10.30;75.20
49236;DHT22;35067;48.134;8.378;2022-12-29T08:00:40;10.20;75.00
49236;DHT22;35067;48.134;8.378;2022-12-29T08:02:40;10.20;75.30
49236;DHT22;35067;48.134;8.378;2022-12-29T08:04:41;10.30;74.60
49236;DHT22;35067;48.134;8.378;2022-12-29T08:06:41;10.30;74.80
49236;DHT22;35067;48.134;8.378;2022-12-29T08:08:42;10.40;75.10
49236;DHT22;35067;48.134;8.378;2022-12-29T08:10:43;10.30;75.00
49236;DHT22;35067;48.134;8.378;2022-12-29T08:12:44;10.30;75.20
49236;DHT22;35067;48.134;8.378;2022-12-29T08:14:44;10.30;76.00
49236;DHT22;35067;48.134;8.378;2022-12-29T08:16:45;10.10;79.00
49236;DHT22;35067;48.134;8.378;2022-12-29T08:18:46;9.90;82.90
49236;DHT22;35067;48.134;8.378;2022-12-29T08:20:47;9.60;86.10
49236;DHT22;35067;48.134;8.378;2022-12-29T08:22:47;9.50;87.20
49236;DHT22;35067;48.134;8.378;2022-12-29T08:24:48;9.30;89.40
49236;DHT22;35067;48.134;8.378;2022-12-29T08:26:49;9.30;91.00
49236;DHT22;35067;48.134;8.378;2022-12-29T08:28:52;9.30;91.00
49236;DHT22;35067;48.134;8.378;2022-12-29T08:30:53;9.10;91.90
49236;DHT22;35067;48.134;8.378;2022-12-29T08:32:54;8.90;93.90
49236;DHT22;35067;48.134;8.378;2022-12-29T08:34:55;8.70;95.60
49236;DHT22;35067;48.134;8.378;2022-12-29T08:36:55;8.70;94.60
49236;DHT22;35067;48.134;8.378;2022-12-29T08:38:57;8.60;95.80
49236;DHT22;35067;48.134;8.378;2022-12-29T08:40:58;8.50;97.20
49236;DHT22;35067;48.134;8.378;2022-12-29T08:42:59;8.50;96.10
49236;DHT22;35067;48.134;8.378;2022-12-29T08:45:00;8.40;98.10
49236;DHT22;35067;48.134;8.378;2022-12-29T08:47:01;8.40;96.70
49236;DHT22;35067;48.134;8.378;2022-12-29T08:49:01;8.50;96.60
49236;DHT22;35067;48.134;8.378;2022-12-29T08:51:02;8.60;95.70
49236;DHT22;35067;48.134;8.378;2022-12-29T08:53:03;8.80;95.40
49236;DHT22;35067;48.134;8.378;2022-12-29T08:55:04;8.70;95.90
49236;DHT22;35067;48.134;8.378;2022-12-29T08:57:05;8.70;94.70
49236;DHT22;35067;48.134;8.378;2022-12-29T08:59:05;8.80;94.90
49236;DHT22;35067;48.134;8.378;2022-12-29T09:01:06;8.90;94.30
49236;DHT22;35067;48.134;8.378;2022-12-29T09:03:07;8.90;93.80
49236;DHT22;35067;48.134;8.378;2022-12-29T09:05:08;8.90;94.20
49236;DHT22;35067;48.134;8.378;2022-12-29T09:07:09;9.10;93.30
49236;DHT22;35067;48.134;8.378;2022-12-29T09:09:10;9.10;92.90
49236;DHT22;35067;48.134;8.378;2022-12-29T09:11:22;9.20;93.00
49236;DHT22;35067;48.134;8.378;2022-12-29T09:13:24;9.20;93.20
49236;DHT22;35067;48.134;8.378;2022-12-29T09:15:25;9.40;92.00
49236;DHT22;35067;48.134;8.378;2022-12-29T09:17:26;9.40;92.20
49236;DHT22;35067;48.134;8.378;2022-12-29T09:19:45;9.40;92.50
49236;DHT22;35067;48.134;8.378;2022-12-29T09:21:46;9.40;92.00
49236;DHT22;35067;48.134;8.378;2022-12-29T09:23:47;9.40;91.70
49236;DHT22;35067;48.134;8.378;2022-12-29T09:25:48;9.40;92.30
49236;DHT22;35067;48.134;8.378;2022-12-29T09:27:49;9.40;92.10
49236;DHT22;35067;48.134;8.378;2022-12-29T09:29:52;9.50;92.20
49236;DHT22;35067;48.134;8.378;2022-12-29T09:31:53;9.50;92.60
49236;DHT22;35067;48.134;8.378;2022-12-29T09:33:53;9.50;92.30
49236;DHT22;35067;48.134;8.378;2022-12-29T09:35:58;9.50;91.80
49236;DHT22;35067;48.134;8.378;2022-12-29T09:37:59;9.50;92.70
49236;DHT22;35067;48.134;8.378;2022-12-29T09:39:59;9.40;93.30
49236;DHT22;35067;48.134;8.378;2022-12-29T09:42:07;9.30;93.80
49236;DHT22;35067;48.134;8.378;2022-12-29T09:44:23;9.20;94.40
49236;DHT22;35067;48.134;8.378;2022-12-29T09:46:29;9.10;94.90
49236;DHT22;35067;48.134;8.378;2022-12-29T09:48:37;9.10;95.50
49236;DHT22;35067;48.134;8.378;2022-12-29T09:50:44;9.10;95.50
49236;DHT22;35067;48.134;8.378;2022-12-29T09:52:52;9.00;95.70
49236;DHT22;35067;48.134;8.378;2022-12-29T09:55:16;9.10;96.10
49236;DHT22;35067;48.134;8.378;2022-12-29T09:57:26;9.10;95.50
49236;DHT22;35067;48.134;8.378;2022-12-29T10:00:01;9.10;95.80
49236;DHT22;35067;48.134;8.378;2022-12-29T10:02:39;9.10;96.20
49236;DHT22;35067;48.134;8.378;2022-12-29T10:04:43;9.20;95.80
49236;DHT22;35067;48.134;8.378;2022-12-29T10:07:09;9.20;94.90
49236;DHT22;35067;48.134;8.378;2022-12-29T10:09:43;9.20;95.40
49236;DHT22;35067;48.134;8.378;2022-12-29T10:14:53;8.90;96.70
49236;DHT22;35067;48.134;8.378;2022-12-29T10:24:07;8.40;99.90
49236;DHT22;35067;48.134;8.378;2022-12-29T10:26:16;8.40;99.90
49236;DHT22;35067;48.134;8.378;2022-12-29T10:28:23;8.50;99.90
49236;DHT22;35067;48.134;8.378;2022-12-29T10:30:33;8.50;99.90
49236;DHT22;35067;48.134;8.378;2022-12-29T10:32:38;8.50;99.90
49236;DHT22;35067;48.134;8.378;2022-12-29T10:34:45;8.60;99.90
49236;DHT22;35067;48.134;8.378;2022-12-29T10:36:51;8.70;99.90
49236;DHT22;35067;48.134;8.378;2022-12-29T10:42:36;8.70;99.90
49236;DHT22;35067;48.134;8.378;2022-12-29T10:44:21;8.50;99.90
49236;DHT22;35067;48.134;8.378;2022-12-29T10:46:29;8.30;99.90
49236;DHT22;35067;48.134;8.378;2022-12-29T10:48:34;8.20;99.90
49236;DHT22;35067;48.134;8.378;2022-12-29T10:50:36;8.20;99.90
49236;DHT22;35067;48.134;8.378;2022-12-29T10:52:43;8.20;99.90
49236;DHT22;35067;48.134;8.378;2022-12-29T10:54:59;8.20;99.90
49236;DHT22;35067;48.134;8.378;2022-12-29T10:57:09;8.20;99.90
49236;DHT22;35067;48.134;8.378;2022-12-29T10:59:29;8.30;99.90
49236;DHT22;35067;48.134;8.378;2022-12-29T11:01:38;8.40;99.90
49236;DHT22;35067;48.134;8.378;2022-12-29T11:03:58;8.40;99.90
49236;DHT22;35067;48.134;8.378;2022-12-29T11:06:13;8.50;99.90
49236;DHT22;35067;48.134;8.378;2022-12-29T11:08:21;8.40;99.90
49236;DHT22;35067;48.134;8.378;2022-12-29T11:12:34;8.50;99.90
49236;DHT22;35067;48.134;8.378;2022-12-29T11:14:36;8.50;99.90
49236;DHT22;35067;48.134;8.378;2022-12-29T11:16:38;8.50;99.90
49236;DHT22;35067;48.134;8.378;2022-12-29T11:18:40;8.40;99.90
49236;DHT22;35067;48.134;8.378;2022-12-29T11:20:42;8.50;99.90
49236;DHT22;35067;48.134;8.378;2022-12-29T11:22:44;8.40;99.90
49236;DHT22;35067;48.134;8.378;2022-12-29T11:24:47;8.30;99.90
49236;DHT22;35067;48.134;8.378;2022-12-29T11:26:51;8.20;99.90
49236;DHT22;35067;48.134;8.378;2022-12-29T11:31:05;8.50;99.90
49236;DHT22;35067;48.134;8.378;2022-12-29T11:33:08;8.60;99.90
49236;DHT22;35067;48.134;8.378;2022-12-29T11:37:38;8.70;99.90
49236;DHT22;35067;48.134;8.378;2022-12-29T11:39:50;8.70;99.90
49236;DHT22;35067;48.134;8.378;2022-12-29T11:41:53;8.60;99.90
49236;DHT22;35067;48.134;8.378;2022-12-29T11:43:56;8.60;99.90
49236;DHT22;35067;48.134;8.378;2022-12-29T11:46:02;8.70;99.90
49236;DHT22;35067;48.134;8.378;2022-12-29T11:48:20;9.00;99.90
49236;DHT22;35067;48.134;8.378;2022-12-29T11:50:25;9.10;99.90
49236;DHT22;35067;48.134;8.378;2022-12-29T11:52:36;9.10;99.90
49236;DHT22;35067;48.134;8.378;2022-12-29T11:54:39;9.10;99.90
49236;DHT22;35067;48.134;8.378;2022-12-29T11:56:42;9.10;99.90
49236;DHT22;35067;48.134;8.378;2022-12-29T11:58:44;9.20;99.90
49236;DHT22;35067;48.134;8.378;2022-12-29T12:00:46;9.10;99.90
49236;DHT22;35067;48.134;8.378;2022-12-29T12:07:39;9.20;99.90
49236;DHT22;35067;48.134;8.378;2022-12-29T12:09:56;8.90;99.90
49236;DHT22;35067;48.134;8.378;2022-12-29T12:11:59;8.80;99.90
49236;DHT22;35067;48.134;8.378;2022-12-29T12:14:14;8.70;99.90
49236;DHT22;35067;48.134;8.378;2022-12-29T12:16:37;8.60;99.90
49236;DHT22;35067;48.134;8.378;2022-12-29T12:21:04;8.60;99.90
49236;DHT22;35067;48.134;8.378;2022-12-29T12:25:54;8.70;99.90
49236;DHT22;35067;48.134;8.378;2022-12-29T12:28:10;8.80;99.90
49236;DHT22;35067;48.134;8.378;2022-12-29T12:30:20;8.70;99.90
49236;DHT22;35067;48.134;8.378;2022-12-29T12:34:50;8.80;99.90
49236;DHT22;35067;48.134;8.378;2022-12-29T12:37:06;8.80;99.90
49236;DHT22;35067;48.134;8.378;2022-12-29T12:39:49;8.90;99.80
49236;DHT22;35067;48.134;8.378;2022-12-29T12:44:35;8.90;99.00
49236;DHT22;35067;48.134;8.378;2022-12-29T12:49:33;9.10;98.10
49236;DHT22;35067;48.134;8.378;2022-12-29T12:57:09;8.90;99.90
49236;DHT22;35067;48.134;8.378;2022-12-29T12:59:30;8.80;99.90
49236;DHT22;35067;48.134;8.378;2022-12-29T13:01:42;8.70;99.90
49236;DHT22;35067;48.134;8.378;2022-12-29T13:06:45;8.50;99.90
49236;DHT22;35067;48.134;8.378;2022-12-29T13:18:41;8.70;99.90
49236;DHT22;35067;48.134;8.378;2022-12-29T13:21:09;8.80;99.90
49236;DHT22;35067;48.134;8.378;2022-12-29T13:23:30;9.00;99.90
49236;DHT22;35067;48.134;8.378;2022-12-29T13:26:04;9.10;98.70
49236;DHT22;35067;48.134;8.378;2022-12-29T13:28:48;9.10;98.30
49236;DHT22;35067;48.134;8.378;2022-12-29T13:35:59;9.30;97.00
49236;DHT22;35067;48.134;8.378;2022-12-29T13:38:11;9.40;97.10
49236;DHT22;35067;48.134;8.378;2022-12-29T13:40:18;9.50;96.50
49236;DHT22;35067;48.134;8.378;2022-12-29T13:42:23;9.50;96.80
49236;DHT22;35067;48.134;8.378;2022-12-29T13:46:40;9.40;96.10
49236;DHT22;35067;48.134;8.378;2022-12-29T13:48:48;9.40;96.50
49236;DHT22;35067;48.134;8.378;2022-12-29T13:50:55;9.40;96.70
49236;DHT22;35067;48.134;8.378;2022-12-29T13:53:06;9.30;96.20
49236;DHT22;35067;48.134;8.378;2022-12-29T13:55:21;9.30;96.50
49236;DHT22;35067;48.134;8.378;2022-12-29T13:59:51;9.30;96.20
49236;DHT22;35067;48.134;8.378;2022-12-29T14:01:59;9.20;96.40
49236;DHT22;35067;48.134;8.378;2022-12-29T14:04:24;9.30;96.90
49236;DHT22;35067;48.134;8.378;2022-12-29T14:06:31;9.30;96.60
49236;DHT22;35067;48.134;8.378;2022-12-29T14:08:34;9.30;96.30
49236;DHT22;35067;48.134;8.378;2022-12-29T14:10:38;9.30;97.30
49236;DHT22;35067;48.134;8.378;2022-12-29T14:12:46;9.20;96.50
49236;DHT22;35067;48.134;8.378;2022-12-29T14:14:50;9.30;96.40
49236;DHT22;35067;48.134;8.378;2022-12-29T14:16:51;9.20;97.10
49236;DHT22;35067;48.134;8.378;2022-12-29T14:18:53;9.20;97.70
49236;DHT22;35067;48.134;8.378;2022-12-29T14:20:59;9.10;98.10
49236;DHT22;35067;48.134;8.378;2022-12-29T14:27:53;9.20;97.20
49236;DHT22;35067;48.134;8.378;2022-12-29T14:29:54;9.20;96.90
49236;DHT22;35067;48.134;8.378;2022-12-29T14:31:55;9.10;96.80
49236;DHT22;35067;48.134;8.378;2022-12-29T14:36:20;9.20;97.40
49236;DHT22;35067;48.134;8.378;2022-12-29T14:38:27;9.30;97.10
49236;DHT22;35067;48.134;8.378;2022-12-29T14:40:29;9.30;97.00
49236;DHT22;35067;48.134;8.378;2022-12-29T14:42:31;9.30;96.90
49236;DHT22;35067;48.134;8.378;2022-12-29T14:44:33;9.20;97.30
49236;DHT22;35067;48.134;8.378;2022-12-29T14:47:01;9.10;97.70
49236;DHT22;35067;48.134;8.378;2022-12-29T14:49:15;9.00;98.20
49236;DHT22;35067;48.134;8.378;2022-12-29T14:51:38;9.00;98.20
49236;DHT22;35067;48.134;8.378;2022-12-29T14:53:49;9.00;98.80
49236;DHT22;35067;48.134;8.378;2022-12-29T14:55:55;9.00;98.70
49236;DHT22;35067;48.134;8.378;2022-12-29T14:58:00;9.10;98.30
49236;DHT22;35067;48.134;8.378;2022-12-29T15:02:22;9.10;97.70
49236;DHT22;35067;48.134;8.378;2022-12-29T15:04:31;9.10;96.90